Time;durP1;ratioP1;P1;durP2;ratioP2;P2;SDS_P1;SDS_P2;PMS_P1;PMS_P2;Temp;Humidity;BMP_temperature;BMP_pressure;BME280_temperature;BME280_humidity;BME280_pressure;Samples;Min_cycle;Max_cycle;Signal;HPM_P1;HPM_P2
2022/05/30 00:02:10;;;;;;;;;4.00;4.00;;;;;13.33;47.14;100689.38;5116915;27;45406;-60
2022/05/30 00:04:38;;;;;;;;;3.25;3.25;;;;;13.33;47.05;100685.91;5115931;27;45380;-60
2022/05/30 00:07:06;;;;;;;;;5.50;4.00;;;;;13.29;46.88;100688.59;5114644;27;46167;-60
2022/05/30 00:09:33;;;;;;;;;3.00;3.00;;;;;13.29;46.82;100680.72;5114852;27;46277;-60
2022/05/30 00:11:59;;;;;;;;;3.00;3.00;;;;;13.26;47.22;100685.25;5096472;27;45344;-60
2022/05/30 00:14:25;;;;;;;;;1.25;1.25;;;;;13.23;47.41;100688.84;5122220;27;46366;-60
2022/05/30 00:16:51;;;;;;;;;9.00;8.00;;;;;13.20;47.35;100688.13;5120666;27;45262;-60
2022/05/30 00:19:16;;;;;;;;;4.00;3.25;;;;;13.19;47.86;100681.13;5117785;27;45240;-60
2022/05/30 00:21:42;;;;;;;;;5.00;5.00;;;;;13.18;47.50;100679.44;5115321;27;67235;-60
2022/05/30 00:24:07;;;;;;;;;17.50;13.75;;;;;13.17;47.21;100675.94;5111622;27;47065;-59
2022/05/30 00:26:32;;;;;;;;;21.75;15.25;;;;;13.13;48.00;100665.63;5122706;27;45399;-59
2022/05/30 00:28:58;;;;;;;;;26.75;17.75;;;;;13.10;47.92;100667.47;5112223;27;60684;-59
2022/05/30 00:31:23;;;;;;;;;16.75;13.50;;;;;13.10;48.33;100672.72;5112638;27;66405;-60
2022/05/30 00:33:49;;;;;;;;;19.00;16.25;;;;;13.12;48.46;100670.03;5118893;27;46040;-59
2022/05/30 00:36:15;;;;;;;;;11.00;10.00;;;;;13.10;48.84;100662.22;5117928;27;45528;-59
2022/05/30 00:38:40;;;;;;;;;6.25;6.00;;;;;13.11;48.44;100674.41;5120751;27;45777;-60
2022/05/30 00:41:06;;;;;;;;;8.75;5.00;;;;;13.09;48.96;100663.13;5120354;27;45534;-59
2022/05/30 00:43:37;;;;;;;;;3.75;3.25;;;;;13.09;48.33;100659.63;5118856;27;46039;-60
2022/05/30 00:46:07;;;;;;;;;3.25;3.25;;;;;13.08;48.95;100655.28;5086335;27;46025;-60
2022/05/30 00:48:44;;;;;;;;;1.00;1.00;;;;;13.07;48.87;100654.44;5121154;27;45303;-59
2022/05/30 00:51:13;;;;;;;;;2.50;2.25;;;;;13.07;48.56;100656.22;5104804;27;45389;-60
2022/05/30 00:53:40;;;;;;;;;4.00;3.00;;;;;13.06;49.25;100649.25;5113440;27;46208;-60
2022/05/30 00:56:09;;;;;;;;;2.00;2.00;;;;;13.05;48.78;100655.41;5103969;27;45284;-60
2022/05/30 00:58:36;;;;;;;;;3.75;2.50;;;;;13.03;49.18;100651.97;5122791;27;45239;-60
2022/05/30 01:01:02;;;;;;;;;3.00;3.00;;;;;13.02;48.92;100647.66;5093968;27;45487;-60
2022/05/30 01:08:55;;;;;;;;;4.00;2.50;;;;;13.03;49.26;100642.34;5105206;27;45425;-60
2022/05/30 01:11:20;;;;;;;;;4.00;2.50;;;;;13.04;49.59;100640.56;5085954;27;69119;-60
2022/05/30 01:13:46;;;;;;;;;4.00;2.00;;;;;13.04;49.64;100640.56;5119920;27;63312;-60
2022/05/30 01:16:11;;;;;;;;;2.00;2.00;;;;;13.03;49.10;100634.47;5113080;27;65439;-60
2022/05/30 01:18:48;;;;;;;;;2.25;1.00;;;;;12.99;50.04;100629.38;5117075;27;45443;-60
2022/05/30 01:21:32;;;;;;;;;4.00;2.00;;;;;13.00;49.88;100638.97;5097327;27;46171;-61
2022/05/30 01:24:27;;;;;;;;;4.00;3.00;;;;;12.97;49.34;100628.59;5107555;27;46106;-60
2022/05/30 01:27:04;;;;;;;;;1.50;1.50;;;;;12.93;49.89;100627.84;5105147;27;46024;-60
2022/05/30 01:29:43;;;;;;;;;3.75;2.75;;;;;12.91;49.52;100632.31;5106302;27;45522;-60
2022/05/30 01:32:09;;;;;;;;;3.00;3.00;;;;;12.87;49.87;100636.81;5099286;27;45355;-60
2022/05/30 01:34:34;;;;;;;;;3.50;2.25;;;;;12.83;49.75;100627.34;5119428;27;71594;-60
2022/05/30 01:36:59;;;;;;;;;2.00;2.00;;;;;12.81;49.93;100626.53;5110747;27;51214;-61
2022/05/30 01:39:25;;;;;;;;;4.75;2.00;;;;;12.80;50.48;100629.22;5118407;27;45303;-61
2022/05/30 01:41:50;;;;;;;;;2.00;2.00;;;;;12.79;49.91;100632.78;5116354;27;67830;-60
2022/05/30 01:44:16;;;;;;;;;2.00;1.25;;;;;12.75;50.47;100625.91;5109860;27;46074;-60
2022/05/30 01:46:41;;;;;;;;;4.00;4.00;;;;;12.73;50.06;100632.09;5113437;27;45206;-60
2022/05/30 01:49:07;;;;;;;;;6.25;4.00;;;;;12.70;50.31;100626.09;5116263;27;45790;-60
2022/05/30 01:51:33;;;;;;;;;7.25;5.75;;;;;12.65;49.97;100630.66;5114258;27;67956;-60
2022/05/30 01:53:58;;;;;;;;;5.50;5.50;;;;;12.63;50.62;100637.75;5120002;27;45349;-60
2022/05/30 01:56:24;;;;;;;;;3.75;3.75;;;;;12.60;50.95;100629.97;5115662;27;45712;-60
2022/05/30 01:58:50;;;;;;;;;4.00;4.00;;;;;12.58;50.75;100627.41;5116040;27;45323;-60
2022/05/30 02:01:18;;;;;;;;;5.75;4.25;;;;;12.58;50.99;100635.28;5115910;27;45469;-60
2022/05/30 02:03:48;;;;;;;;;5.75;5.00;;;;;12.56;50.00;100633.63;5115699;27;45363;-60
2022/05/30 02:06:14;;;;;;;;;8.25;4.50;;;;;12.53;50.90;100635.44;5117303;27;45864;-60
2022/05/30 02:08:40;;;;;;;;;4.00;4.00;;;;;12.51;51.19;100636.41;5119009;27;45509;-60
2022/05/30 02:11:08;;;;;;;;;5.00;4.00;;;;;12.46;51.51;100628.69;5116413;27;45380;-62
2022/05/30 02:13:34;;;;;;;;;4.00;4.00;;;;;12.51;51.44;100645.13;5115921;27;46262;-62
2022/05/30 02:18:47;;;;;;;;;4.00;3.50;;;;;12.54;51.39;100634.53;5114922;27;45214;-62
2022/05/30 02:21:12;;;;;;;;;4.00;3.00;;;;;12.55;51.38;100638.00;5115203;27;45521;-62
2022/05/30 02:23:38;;;;;;;;;6.00;3.00;;;;;12.58;51.32;100640.53;5108770;27;71225;-62
2022/05/30 02:26:03;;;;;;;;;5.00;5.00;;;;;12.57;51.59;100630.97;5119899;27;67229;-62
2022/05/30 02:28:28;;;;;;;;;5.25;3.00;;;;;12.57;51.65;100632.72;5101573;27;62064;-62
2022/05/30 02:30:54;;;;;;;;;4.25;3.50;;;;;12.58;51.55;100634.44;5098986;27;67016;-62
2022/05/30 02:38:48;;;;;;;;;5.00;4.00;;;;;12.56;51.62;100634.47;5114544;27;45169;-62
2022/05/30 02:41:14;;;;;;;;;6.75;5.50;;;;;12.56;51.18;100633.63;5120047;27;45529;-62
2022/05/30 02:43:39;;;;;;;;;6.00;4.00;;;;;12.53;51.46;100635.44;5109087;27;47012;-62
2022/05/30 02:46:05;;;;;;;;;5.00;3.25;;;;;12.53;51.47;100637.22;5119068;27;45323;-63
2022/05/30 02:48:30;;;;;;;;;7.00;4.00;;;;;12.53;51.45;100638.06;5098525;27;45342;-62
2022/05/30 02:50:56;;;;;;;;;5.00;3.00;;;;;12.51;51.80;100636.41;5116730;27;45297;-62
2022/05/30 02:53:21;;;;;;;;;5.25;3.00;;;;;12.51;51.42;100637.25;5112628;27;45939;-62
2022/05/30 02:55:47;;;;;;;;;4.00;3.50;;;;;12.49;51.65;100639.09;5119148;27;45449;-62
2022/05/30 02:58:12;;;;;;;;;5.25;3.50;;;;;12.46;51.97;100631.31;5115864;27;46671;-62
2022/05/30 03:00:38;;;;;;;;;5.75;4.25;;;;;12.43;51.76;100628.84;5116725;27;45320;-62
2022/05/30 03:03:04;;;;;;;;;4.00;3.75;;;;;12.42;52.03;100626.25;5118370;27;46405;-62
2022/05/30 03:05:30;;;;;;;;;5.25;4.00;;;;;12.41;52.08;100628.03;5114417;27;45354;-62
2022/05/30 03:07:56;;;;;;;;;9.25;4.00;;;;;12.38;52.14;100632.50;5110433;27;45391;-62
2022/05/30 03:10:22;;;;;;;;;3.50;2.00;;;;;12.30;52.00;100623.16;5118601;27;45472;-62
2022/05/30 03:12:47;;;;;;;;;5.75;4.00;;;;;12.28;52.11;100624.97;5114918;27;62236;-62
2022/05/30 03:15:12;;;;;;;;;7.00;5.00;;;;;12.31;52.30;100638.00;5114681;27;61904;-62
2022/05/30 03:17:38;;;;;;;;;5.00;3.75;;;;;12.31;51.95;100643.25;5115023;27;65428;-62
2022/05/30 03:20:04;;;;;;;;;3.75;3.50;;;;;12.31;51.94;100638.00;5112205;27;64652;-62
2022/05/30 03:22:29;;;;;;;;;5.00;3.00;;;;;12.26;51.90;100642.56;5119358;27;45275;-62
2022/05/30 03:24:54;;;;;;;;;4.25;4.00;;;;;12.22;51.68;100643.56;5117861;27;66575;-62
2022/05/30 03:27:20;;;;;;;;;5.25;3.50;;;;;12.16;51.22;100643.78;5120884;27;64069;-60
2022/05/30 03:29:45;;;;;;;;;4.25;4.00;;;;;12.10;51.72;100642.22;5120427;27;65468;-60
2022/05/30 03:32:10;;;;;;;;;9.75;5.00;;;;;12.06;51.67;100645.03;5116647;27;69002;-60
2022/05/30 03:34:36;;;;;;;;;4.00;3.75;;;;;12.02;52.01;100646.03;5122602;27;64613;-60
2022/05/30 03:37:01;;;;;;;;;6.75;2.75;;;;;11.98;52.54;100645.28;5115047;27;45328;-60
2022/05/30 03:39:26;;;;;;;;;7.50;5.50;;;;;11.98;52.28;100647.06;5120375;27;66431;-60
2022/05/30 03:41:52;;;;;;;;;6.75;4.00;;;;;11.91;52.47;100635.91;5117290;27;45400;-59
2022/05/30 03:44:17;;;;;;;;;4.50;4.50;;;;;11.92;52.46;100637.63;5122808;27;45296;-60
2022/05/30 03:46:42;;;;;;;;;7.25;4.00;;;;;11.90;52.73;100645.56;5118875;27;63432;-60
2022/05/30 03:49:08;;;;;;;;;6.00;4.00;;;;;11.88;52.99;100639.47;5121848;27;56581;-59
2022/05/30 03:51:33;;;;;;;;;4.75;4.75;;;;;11.87;52.39;100645.63;5116090;27;68783;-60
2022/05/30 03:53:58;;;;;;;;;5.50;4.00;;;;;11.85;52.89;100642.19;5122197;27;45475;-60
2022/05/30 03:56:24;;;;;;;;;8.00;5.75;;;;;11.80;53.05;100643.25;5122423;27;62070;-59
2022/05/30 03:58:50;;;;;;;;;7.75;5.50;;;;;11.82;52.64;100649.31;5122443;27;45276;-59
2022/05/30 04:01:15;;;;;;;;;5.75;3.00;;;;;11.78;53.11;100644.16;5120327;27;46274;-60
2022/05/30 04:03:41;;;;;;;;;11.25;5.50;;;;;11.78;53.63;100656.41;5120318;27;67155;-60
2022/05/30 04:06:07;;;;;;;;;10.25;6.25;;;;;11.74;52.81;100655.66;5114506;27;45374;-60
2022/05/30 04:08:32;;;;;;;;;5.00;5.00;;;;;11.72;53.11;100657.47;5123290;27;45291;-60
2022/05/30 04:10:58;;;;;;;;;6.00;5.75;;;;;11.67;53.39;100648.91;5115867;27;46183;-59
2022/05/30 04:13:23;;;;;;;;;6.00;4.00;;;;;11.70;53.10;100656.66;5120360;27;45425;-59
2022/05/30 04:15:49;;;;;;;;;5.25;4.00;;;;;11.68;53.31;100657.63;5114139;27;62245;-60
2022/05/30 04:18:14;;;;;;;;;5.25;4.00;;;;;11.70;53.68;100667.13;5120544;27;45548;-60
2022/05/30 04:20:41;;;;;;;;;6.00;5.75;;;;;11.72;53.41;100667.97;5116006;27;46569;-60
2022/05/30 04:23:06;;;;;;;;;6.00;6.00;;;;;11.74;52.87;100675.78;5104447;27;45414;-60
2022/05/30 04:25:31;;;;;;;;;6.25;5.00;;;;;11.72;53.42;100670.59;5118275;27;45381;-59
2022/05/30 04:27:57;;;;;;;;;7.75;4.50;;;;;11.73;52.86;100666.19;5109607;27;66112;-59
2022/05/30 04:30:23;;;;;;;;;5.75;4.00;;;;;11.72;53.23;100672.34;5122391;27;45484;-59
2022/05/30 04:32:48;;;;;;;;;7.00;4.75;;;;;11.73;52.89;100676.69;5120554;27;45345;-59
2022/05/30 04:35:14;;;;;;;;;4.00;3.50;;;;;11.71;53.42;100670.63;5120811;27;45443;-60
2022/05/30 04:37:40;;;;;;;;;11.00;4.75;;;;;11.74;53.03;100675.78;5113156;27;45218;-59
2022/05/30 04:40:08;;;;;;;;;8.00;5.00;;;;;11.74;53.23;100673.16;5119894;27;46875;-60
2022/05/30 04:42:33;;;;;;;;;4.00;4.00;;;;;11.73;52.96;100671.44;5119748;27;45436;-59
2022/05/30 04:44:59;;;;;;;;;3.75;3.00;;;;;11.74;53.08;100671.38;5121172;27;45243;-59
2022/05/30 04:47:24;;;;;;;;;8.00;5.25;;;;;11.71;53.00;100673.25;5103634;27;45206;-59
2022/05/30 04:49:50;;;;;;;;;11.25;6.50;;;;;11.70;53.31;100668.91;5115009;27;45794;-59
2022/05/30 04:52:16;;;;;;;;;7.75;5.50;;;;;11.65;53.11;100668.19;5121586;27;45479;-59
2022/05/30 04:54:41;;;;;;;;;6.50;5.00;;;;;11.69;52.81;100675.94;5109930;27;45350;-59
2022/05/30 04:57:07;;;;;;;;;7.50;5.50;;;;;11.70;53.18;100675.00;5119733;27;67099;-60
2022/05/30 04:59:32;;;;;;;;;8.00;5.00;;;;;11.71;52.84;100684.59;5100098;27;46321;-60
2022/05/30 05:01:58;;;;;;;;;7.25;4.50;;;;;11.73;53.14;100680.16;5117838;27;45350;-59
2022/05/30 05:04:23;;;;;;;;;5.25;3.00;;;;;11.74;53.30;100681.88;5115120;27;64165;-59
2022/05/30 05:06:49;;;;;;;;;5.50;5.00;;;;;11.82;52.99;100683.38;5116256;27;45564;-59
2022/05/30 05:09:17;;;;;;;;;8.50;4.00;;;;;11.86;53.13;100687.63;5117498;27;45349;-59
2022/05/30 05:11:44;;;;;;;;;6.75;6.00;;;;;11.81;52.67;100676.41;5118615;27;45787;-60
2022/05/30 05:14:09;;;;;;;;;6.50;6.00;;;;;11.90;52.94;100684.00;5119872;27;45431;-60
2022/05/30 05:16:35;;;;;;;;;9.25;7.00;;;;;11.99;52.91;100690.72;5117826;27;59349;-60
2022/05/30 05:19:01;;;;;;;;;5.75;4.25;;;;;12.00;52.53;100684.56;5096470;27;45402;-59
2022/05/30 05:21:32;;;;;;;;;7.00;4.75;;;;;12.05;52.75;100691.38;5119848;27;45788;-60
2022/05/30 05:23:58;;;;;;;;;7.75;6.00;;;;;12.08;52.78;100696.50;5114474;27;45287;-60
2022/05/30 05:26:24;;;;;;;;;6.25;5.75;;;;;12.13;52.33;100691.97;5122227;27;45251;-60
2022/05/30 05:28:50;;;;;;;;;5.25;5.25;;;;;12.13;52.67;100694.59;5115055;27;45472;-59
2022/05/30 05:31:25;;;;;;;;;6.75;4.75;;;;;12.23;52.11;100695.13;5118128;27;45570;-59
2022/05/30 05:33:52;;;;;;;;;5.00;4.00;;;;;12.27;52.22;100693.25;5118602;27;45521;-60
2022/05/30 05:36:20;;;;;;;;;8.50;6.75;;;;;12.32;52.21;100696.56;5111668;27;45350;-60
2022/05/30 05:38:45;;;;;;;;;8.00;6.00;;;;;12.35;52.09;100692.06;5117298;27;46037;-60
2022/05/30 05:41:11;;;;;;;;;8.50;7.00;;;;;12.40;52.24;100698.94;5119372;27;45278;-61
2022/05/30 05:43:36;;;;;;;;;11.25;5.75;;;;;12.34;52.32;100679.88;5114084;27;65260;-59
2022/05/30 05:46:01;;;;;;;;;7.25;5.00;;;;;12.48;52.25;100696.88;5100907;27;68290;-57
2022/05/30 05:48:28;;;;;;;;;9.25;6.75;;;;;12.53;51.95;100705.47;5102679;27;45612;-60
2022/05/30 05:50:54;;;;;;;;;7.00;5.50;;;;;12.54;51.56;100710.66;5100936;27;45446;-60
2022/05/30 05:53:19;;;;;;;;;7.75;4.50;;;;;12.56;51.83;100705.38;5113674;27;62181;-59
2022/05/30 05:55:44;;;;;;;;;10.25;5.50;;;;;12.53;51.22;100702.84;5118492;27;67339;-59
2022/05/30 05:58:10;;;;;;;;;7.50;5.00;;;;;12.56;51.87;100712.38;5119662;27;67562;-59
2022/05/30 06:00:35;;;;;;;;;8.00;6.00;;;;;12.58;51.52;100714.03;5118360;27;60646;-59
2022/05/30 06:03:01;;;;;;;;;7.25;6.00;;;;;12.61;51.74;100716.56;5117511;27;45369;-59
2022/05/30 06:05:26;;;;;;;;;7.25;6.50;;;;;12.67;51.49;100705.81;5110293;27;45449;-61
2022/05/30 06:07:52;;;;;;;;;16.00;6.00;;;;;12.67;51.46;100694.47;5120826;27;46903;-60
2022/05/30 06:10:17;;;;;;;;;5.00;5.00;;;;;12.72;51.70;100698.63;5119943;27;45345;-59
2022/05/30 06:12:45;;;;;;;;;7.00;7.00;;;;;12.83;51.53;100706.13;5120462;27;45399;-59
2022/05/30 06:15:14;;;;;;;;;7.00;5.50;;;;;12.91;51.49;100714.59;5110635;27;45444;-59
2022/05/30 06:17:40;;;;;;;;;10.00;6.50;;;;;12.96;51.32;100711.78;5119074;27;47227;-58
2022/05/30 06:20:07;;;;;;;;;7.75;6.00;;;;;13.00;51.20;100715.16;5115260;27;45300;-59
2022/05/30 06:22:32;;;;;;;;;6.75;5.50;;;;;13.03;51.42;100708.03;5097304;27;45953;-59
2022/05/30 06:24:57;;;;;;;;;7.25;6.00;;;;;13.06;51.17;100710.50;5104053;27;68161;-59
2022/05/30 06:27:23;;;;;;;;;9.75;6.50;;;;;13.08;50.95;100708.72;5113983;27;69157;-59
2022/05/30 06:29:49;;;;;;;;;5.00;4.75;;;;;13.09;50.89;100706.94;5113438;27;67280;-60
2022/05/30 06:32:14;;;;;;;;;8.25;6.00;;;;;13.09;50.73;100702.53;5110844;27;45533;-60
2022/05/30 06:34:39;;;;;;;;;9.00;6.75;;;;;13.15;50.79;100705.84;5105867;27;65232;-60
2022/05/30 06:37:05;;;;;;;;;9.25;7.00;;;;;13.20;50.76;100717.88;5110578;27;69641;-60
2022/05/30 06:39:30;;;;;;;;;8.00;5.75;;;;;13.24;50.61;100723.88;5116723;27;50390;-60
2022/05/30 06:41:55;;;;;;;;;7.75;4.00;;;;;13.30;50.72;100724.50;5110251;27;54491;-59
2022/05/30 06:44:21;;;;;;;;;7.50;6.25;;;;;13.38;50.73;100724.22;5101224;27;64311;-60
2022/05/30 06:46:46;;;;;;;;;8.75;7.25;;;;;13.45;50.51;100723.06;5097418;27;68438;-61
2022/05/30 06:49:12;;;;;;;;;6.00;5.00;;;;;13.54;50.57;100728.88;5108629;27;67738;-61
2022/05/30 06:51:37;;;;;;;;;9.75;6.00;;;;;13.62;50.31;100721.56;5119037;27;45208;-59
2022/05/30 06:54:05;;;;;;;;;6.75;5.00;;;;;13.71;50.24;100720.34;5107312;27;45248;-60
2022/05/30 06:56:37;;;;;;;;;5.00;4.50;;;;;13.78;49.99;100714.75;5110240;27;46004;-61
2022/05/30 06:59:03;;;;;;;;;6.25;4.00;;;;;13.87;49.51;100718.78;5114427;27;45251;-61
2022/05/30 07:01:31;;;;;;;;;9.25;5.50;;;;;13.95;49.47;100715.84;5118788;27;65538;-61
2022/05/30 07:03:57;;;;;;;;;6.00;5.75;;;;;14.01;49.36;100713.81;5116071;27;45503;-61
2022/05/30 07:06:29;;;;;;;;;10.50;5.75;;;;;14.09;49.67;100710.00;5097651;27;45505;-61
2022/05/30 07:08:55;;;;;;;;;6.25;5.00;;;;;14.13;49.17;100712.47;5119972;27;45231;-62
2022/05/30 07:11:22;;;;;;;;;6.25;4.00;;;;;14.19;49.03;100704.28;5120196;27;45547;-61
2022/05/30 07:13:48;;;;;;;;;4.75;2.50;;;;;14.26;49.23;100707.53;5112383;27;45340;-62
2022/05/30 07:16:13;;;;;;;;;6.50;5.00;;;;;14.32;48.79;100715.13;5101199;27;46105;-61
2022/05/30 07:18:39;;;;;;;;;7.75;6.75;;;;;14.31;48.72;100705.53;5115751;27;45378;-62
2022/05/30 07:21:07;;;;;;;;;5.25;4.25;;;;;14.32;48.73;100703.75;5120547;27;45244;-62
2022/05/30 07:23:34;;;;;;;;;8.75;5.25;;;;;14.37;48.42;100718.44;5110969;27;45238;-61
2022/05/30 07:26:02;;;;;;;;;8.00;5.25;;;;;14.46;48.26;100716.34;5117831;27;45294;-61
2022/05/30 07:28:29;;;;;;;;;7.75;6.00;;;;;14.54;48.46;100719.50;5112062;27;45411;-61
2022/05/30 07:31:15;;;;;;;;;5.00;5.00;;;;;14.65;48.10;100708.53;5113698;27;45593;-62
2022/05/30 07:33:43;;;;;;;;;5.75;5.00;;;;;14.73;47.82;100706.38;5118579;27;45481;-62
2022/05/30 07:36:11;;;;;;;;;9.00;5.00;;;;;14.76;47.56;100709.72;5105647;27;45346;-62
2022/05/30 07:38:36;;;;;;;;;6.50;5.75;;;;;14.84;47.67;100708.53;5120368;27;45260;-62
2022/05/30 07:41:03;;;;;;;;;7.25;7.00;;;;;14.93;47.46;100708.13;5114237;27;55853;-61
2022/05/30 07:43:29;;;;;;;;;6.75;5.00;;;;;15.02;47.34;100706.88;5123222;27;45247;-61
2022/05/30 07:45:54;;;;;;;;;4.50;3.00;;;;;15.08;47.33;100707.41;5123175;27;46138;-62
2022/05/30 07:48:19;;;;;;;;;10.25;4.00;;;;;15.16;46.63;100717.63;5122115;27;45292;-62
2022/05/30 07:50:45;;;;;;;;;9.00;4.75;;;;;15.22;46.99;100713.84;5123117;27;45639;-62
2022/05/30 07:53:10;;;;;;;;;6.50;3.00;;;;;15.29;46.51;100710.81;5121447;27;57084;-62
2022/05/30 07:55:38;;;;;;;;;8.50;4.00;;;;;15.35;45.47;100707.91;5121963;27;62677;-62
2022/05/30 07:58:06;;;;;;;;;2.00;2.00;;;;;15.41;45.64;100706.78;5121444;27;45686;-62
2022/05/30 08:00:35;;;;;;;;;6.75;3.00;;;;;15.42;45.96;100712.88;5122450;27;45407;-63
2022/05/30 08:03:02;;;;;;;;;5.00;4.25;;;;;15.41;46.01;100713.84;5104840;27;45466;-62
2022/05/30 08:05:28;;;;;;;;;2.75;2.75;;;;;15.42;45.40;100711.09;5115824;27;46208;-62
2022/05/30 08:07:53;;;;;;;;;3.25;3.25;;;;;15.43;45.69;100717.25;5114341;27;45220;-62
2022/05/30 08:10:19;;;;;;;;;3.25;2.25;;;;;15.43;44.42;100714.59;5106098;27;45291;-62
2022/05/30 08:12:46;;;;;;;;;5.25;4.00;;;;;15.50;44.80;100724.78;5104082;27;45220;-62
2022/05/30 08:15:14;;;;;;;;;3.00;3.00;;;;;15.56;44.80;100721.00;5120613;27;46527;-62
2022/05/30 08:17:41;;;;;;;;;6.00;3.00;;;;;15.58;44.60;100713.84;5093248;27;45814;-63
2022/05/30 08:20:10;;;;;;;;;3.25;3.00;;;;;15.65;44.68;100717.94;5103017;27;45691;-63
2022/05/30 08:22:35;;;;;;;;;3.75;3.00;;;;;15.59;44.28;100714.72;5110829;27;45305;-62
2022/05/30 08:25:06;;;;;;;;;5.25;4.00;;;;;15.57;44.50;100712.16;5122401;27;46305;-62
2022/05/30 08:27:32;;;;;;;;;5.00;5.00;;;;;15.60;44.46;100712.03;5118740;27;45480;-62
2022/05/30 08:29:57;;;;;;;;;5.50;3.00;;;;;15.62;44.22;100706.69;5117420;27;45298;-63
2022/05/30 08:32:23;;;;;;;;;3.75;3.00;;;;;15.69;44.01;100701.00;5122157;27;45249;-63
2022/05/30 08:34:48;;;;;;;;;4.00;4.00;;;;;15.75;43.99;100698.09;5122547;27;47050;-62
2022/05/30 08:37:13;;;;;;;;;4.00;4.00;;;;;15.84;43.76;100703.84;5115469;27;60809;-62
2022/05/30 08:42:28;;;;;;;;;4.25;3.75;;;;;16.02;43.32;100704.72;5122773;27;45334;-62
2022/05/30 08:44:55;;;;;;;;;3.00;2.75;;;;;16.10;43.28;100694.63;5110075;27;46170;-62
2022/05/30 08:47:51;;;;;;;;;3.50;1.00;;;;;16.19;43.19;100706.53;5117476;27;45411;-62
2022/05/30 08:50:34;;;;;;;;;3.25;2.00;;;;;16.19;42.55;100691.53;5114167;27;45185;-62
2022/05/30 08:53:24;;;;;;;;;3.75;1.50;;;;;16.23;42.62;100693.06;5121486;27;45295;-62
2022/05/30 08:55:58;;;;;;;;;17.75;12.50;;;;;16.29;42.39;100691.94;5091243;27;45695;-62
2022/05/30 08:58:45;;;;;;;;;4.75;3.00;;;;;16.41;42.21;100699.19;5106293;27;45529;-62
2022/05/30 09:01:19;;;;;;;;;6.00;2.00;;;;;16.51;41.70;100691.66;5111858;27;45426;-63
2022/05/30 09:04:06;;;;;;;;;2.00;2.00;;;;;16.59;41.88;100692.09;5095030;27;45380;-62
2022/05/30 09:06:39;;;;;;;;;1.00;1.00;;;;;16.68;41.75;100701.34;5099308;27;46250;-62
2022/05/30 09:09:13;;;;;;;;;1.50;1.00;;;;;16.71;41.01;100685.28;5109385;27;45501;-63
2022/05/30 09:11:53;;;;;;;;;1.00;1.00;;;;;16.76;40.61;100685.06;5118812;27;45417;-62
2022/05/30 09:14:25;;;;;;;;;6.00;5.00;;;;;16.82;40.90;100692.66;5096784;27;45393;-62
2022/05/30 09:16:56;;;;;;;;;2.75;2.75;;;;;16.81;40.88;100697.09;5099003;27;46293;-62
2022/05/30 09:19:24;;;;;;;;;8.00;5.75;;;;;16.85;40.36;100692.53;5101807;27;45879;-62
2022/05/30 09:21:50;;;;;;;;;1.00;1.00;;;;;16.89;39.89;100697.56;5099179;27;45252;-63
2022/05/30 09:24:16;;;;;;;;;5.75;3.00;;;;;16.98;40.38;100692.69;5100601;27;45297;-62
2022/05/30 09:26:41;;;;;;;;;2.00;2.00;;;;;17.04;39.41;100689.75;5118441;27;46041;-62
2022/05/30 09:29:13;;;;;;;;;2.00;2.00;;;;;17.07;39.85;100689.56;5114805;27;45264;-63
2022/05/30 09:31:47;;;;;;;;;3.50;2.00;;;;;17.15;39.43;100690.00;5111567;27;45254;-62
2022/05/30 09:34:57;;;;;;;;;3.50;3.25;;;;;17.29;39.58;100683.09;5115591;27;45407;-62
2022/05/30 09:37:30;;;;;;;;;3.50;3.50;;;;;17.52;39.29;100684.44;5110997;27;45223;-62
2022/05/30 09:39:56;;;;;;;;;4.00;2.50;;;;;17.91;39.42;100676.00;5108471;27;45826;-62
2022/05/30 09:42:37;;;;;;;;;0.50;0.50;;;;;18.54;38.95;100672.25;5103059;27;45309;-62
2022/05/30 09:45:14;;;;;;;;;1.25;1.25;;;;;19.72;37.75;100673.63;5102336;27;45417;-62
2022/05/30 09:48:03;;;;;;;;;1.50;1.00;;;;;21.37;37.13;100668.41;5101696;27;45433;-62
2022/05/30 09:50:28;;;;;;;;;2.75;1.00;;;;;23.03;34.30;100668.16;5102015;27;45308;-62
2022/05/30 09:52:54;;;;;;;;;2.25;2.25;;;;;24.62;33.68;100668.34;5101748;27;45326;-62
2022/05/30 09:55:35;;;;;;;;;3.00;1.50;;;;;26.10;31.14;100669.31;5101715;27;46511;-62
2022/05/30 09:58:01;;;;;;;;;1.50;1.50;;;;;27.32;29.09;100663.03;5087803;27;45406;-62
2022/05/30 10:00:47;;;;;;;;;12.75;11.00;;;;;28.56;27.84;100665.72;5091434;27;45422;-63
2022/05/30 10:03:31;;;;;;;;;5.75;4.00;;;;;29.75;27.08;100663.00;5110478;27;45440;-63
2022/05/30 10:06:16;;;;;;;;;0.00;0.00;;;;;30.75;22.83;100651.88;5113756;27;45399;-64
2022/05/30 10:08:43;;;;;;;;;2.00;1.25;;;;;31.38;25.61;100658.97;5113850;27;46032;-63
2022/05/30 10:11:09;;;;;;;;;2.00;0.25;;;;;32.07;24.27;100663.53;5112362;27;45296;-64
2022/05/30 10:13:38;;;;;;;;;0.75;0.75;;;;;32.66;22.68;100651.06;5118952;27;45426;-63
2022/05/30 10:16:07;;;;;;;;;0.00;0.00;;;;;32.84;24.42;100656.91;5120500;27;45327;-63
2022/05/30 10:18:47;;;;;;;;;1.25;0.00;;;;;32.66;23.00;100651.06;5098573;27;46185;-62
2022/05/30 10:21:29;;;;;;;;;1.00;1.00;;;;;31.39;23.70;100659.81;5109789;27;45642;-63
2022/05/30 10:30:31;;;;;;;;;1.50;0.00;;;;;32.62;20.72;100647.06;5011359;28;45775;-63
2022/05/30 10:33:02;;;;;;;;;0.00;0.00;;;;;33.17;22.25;100650.25;4973859;28;45709;-63
2022/05/30 10:35:44;;;;;;;;;2.00;1.00;;;;;34.00;20.76;100650.63;5069495;27;45394;-63
2022/05/30 10:38:21;;;;;;;;;2.25;1.00;;;;;34.41;21.36;100658.00;5120792;27;45330;-64
2022/05/30 10:41:09;;;;;;;;;0.00;0.00;;;;;34.55;20.60;100658.94;5122036;27;45218;-63
2022/05/30 10:43:43;;;;;;;;;0.50;0.00;;;;;35.08;19.46;100650.13;5110196;27;45705;-64
2022/05/30 10:46:12;;;;;;;;;0.25;0.00;;;;;35.59;18.55;100646.91;5107645;27;45348;-64
2022/05/30 10:48:45;;;;;;;;;2.75;1.50;;;;;35.99;19.13;100659.72;5127076;27;45309;-66
2022/05/30 10:51:18;;;;;;;;;0.25;0.25;;;;;36.13;18.47;100663.28;5108631;27;46211;-64
2022/05/30 10:54:10;;;;;;;;;0.00;0.00;;;;;36.27;17.98;100657.59;5107537;27;45240;-63
2022/05/30 10:56:40;;;;;;;;;1.00;0.00;;;;;36.43;17.38;100655.47;5126180;27;45416;-62
2022/05/30 10:59:26;;;;;;;;;0.00;0.00;;;;;36.53;18.60;100655.00;5126899;27;45400;-62
2022/05/30 11:02:26;;;;;;;;;0.75;0.75;;;;;36.23;17.59;100658.22;5107125;27;46671;-62
2022/05/30 11:05:08;;;;;;;;;2.00;0.00;;;;;34.76;19.01;100650.69;5122540;27;45560;-62
2022/05/30 11:07:45;;;;;;;;;0.00;0.00;;;;;33.12;19.44;100661.63;5125996;27;45332;-63
2022/05/30 11:10:20;;;;;;;;;0.50;0.00;;;;;31.40;19.87;100664.22;5097149;27;45553;-62
2022/05/30 11:12:49;;;;;;;;;0.75;0.00;;;;;30.09;20.25;100657.44;5122144;27;45291;-63
2022/05/30 11:15:33;;;;;;;;;0.75;0.75;;;;;29.37;20.73;100659.94;5126293;27;45414;-66
2022/05/30 11:18:20;;;;;;;;;0.00;0.00;;;;;28.73;20.88;100657.72;5124931;27;45472;-65
2022/05/30 11:21:06;;;;;;;;;0.00;0.00;;;;;29.20;20.98;100649.13;5117601;27;45422;-65
2022/05/30 11:23:32;;;;;;;;;1.00;1.00;;;;;30.12;20.86;100649.00;5108793;27;45432;-65
2022/05/30 11:26:42;;;;;;;;;3.00;1.00;;;;;31.12;19.28;100643.09;5108733;27;45365;-64
2022/05/30 11:29:28;;;;;;;;;1.50;0.00;;;;;31.54;19.09;100636.41;5106505;27;45293;-64
2022/05/30 11:32:25;;;;;;;;;6.25;5.25;;;;;32.06;20.11;100639.38;5124584;27;45310;-64
2022/05/30 11:35:02;;;;;;;;;1.00;1.00;;;;;32.73;19.38;100635.75;5117225;27;45370;-65
2022/05/30 11:37:33;;;;;;;;;4.25;4.00;;;;;33.21;18.50;100627.13;5106645;27;45456;-65
2022/05/30 11:40:05;;;;;;;;;1.25;1.00;;;;;33.80;17.99;100634.16;5104871;27;45562;-64
2022/05/30 11:42:30;;;;;;;;;3.00;2.00;;;;;34.43;17.87;100632.31;5120183;27;45294;-65
2022/05/30 11:45:06;;;;;;;;;3.00;1.25;;;;;34.90;17.40;100631.69;5113134;27;45967;-63
2022/05/30 11:47:45;;;;;;;;;0.00;0.00;;;;;35.28;17.30;100632.03;5102790;27;45579;-64
2022/05/30 11:50:25;;;;;;;;;1.75;1.75;;;;;35.69;17.69;100628.28;5113485;27;45451;-63
2022/05/30 11:53:14;;;;;;;;;1.00;0.50;;;;;35.99;16.31;100624.31;5109187;27;45157;-62
2022/05/30 11:55:48;;;;;;;;;2.00;1.00;;;;;36.44;16.77;100630.72;5104713;27;46216;-62
2022/05/30 11:58:35;;;;;;;;;2.75;0.00;;;;;36.53;16.11;100627.75;5096670;27;45572;-63